sensor_id;sensor_type;location;lat;lon;timestamp;temperature;humidity
780;DHT22;373;49.342;8.146;2023-02-13T00:01:01;7.60;1.00
780;DHT22;373;49.342;8.146;2023-02-13T00:03:28;7.30;1.00
780;DHT22;373;49.342;8.146;2023-02-13T00:05:55;7.20;1.00
780;DHT22;373;49.342;8.146;2023-02-13T00:08:22;7.00;99.90
780;DHT22;373;49.342;8.146;2023-02-13T00:10:49;6.30;1.00
780;DHT22;373;49.342;8.146;2023-02-13T00:13:16;6.60;99.90
780;DHT22;373;49.342;8.146;2023-02-13T00:15:44;6.70;53.30
780;DHT22;373;49.342;8.146;2023-02-13T00:18:11;6.60;1.00
780;DHT22;373;49.342;8.146;2023-02-13T00:20:38;6.70;1.00
780;DHT22;373;49.342;8.146;2023-02-13T00:23:05;6.70;1.00
780;DHT22;373;49.342;8.146;2023-02-13T00:25:32;6.90;1.00
780;DHT22;373;49.342;8.146;2023-02-13T00:27:59;7.00;1.00
780;DHT22;373;49.342;8.146;2023-02-13T00:30:27;7.10;99.90
780;DHT22;373;49.342;8.146;2023-02-13T00:32:55;7.20;1.00
780;DHT22;373;49.342;8.146;2023-02-13T00:35:23;7.20;99.90
780;DHT22;373;49.342;8.146;2023-02-13T00:37:51;7.30;99.90
780;DHT22;373;49.342;8.146;2023-02-13T00:40:23;7.20;99.90
780;DHT22;373;49.342;8.146;2023-02-13T00:42:50;7.20;99.90
780;DHT22;373;49.342;8.146;2023-02-13T00:45:17;7.30;1.00
780;DHT22;373;49.342;8.146;2023-02-13T00:47:45;7.10;99.90
780;DHT22;373;49.342;8.146;2023-02-13T00:50:15;6.90;99.90
780;DHT22;373;49.342;8.146;2023-02-13T00:52:43;6.80;1.00
780;DHT22;373;49.342;8.146;2023-02-13T00:55:11;6.90;63.70
780;DHT22;373;49.342;8.146;2023-02-13T00:57:38;6.70;1.00
780;DHT22;373;49.342;8.146;2023-02-13T01:00:07;6.60;1.00
780;DHT22;373;49.342;8.146;2023-02-13T01:02:34;6.50;1.00
780;DHT22;373;49.342;8.146;2023-02-13T01:05:01;6.60;99.90
780;DHT22;373;49.342;8.146;2023-02-13T01:07:30;6.80;99.90
780;DHT22;373;49.342;8.146;2023-02-13T01:09:57;6.70;99.90
780;DHT22;373;49.342;8.146;2023-02-13T01:12:26;6.60;90.70
780;DHT22;373;49.342;8.146;2023-02-13T01:14:53;6.70;1.00
780;DHT22;373;49.342;8.146;2023-02-13T01:17:20;6.60;99.90
780;DHT22;373;49.342;8.146;2023-02-13T01:19:47;5.90;1.00
780;DHT22;373;49.342;8.146;2023-02-13T01:22:14;5.80;1.00
780;DHT22;373;49.342;8.146;2023-02-13T01:24:43;6.20;99.90
780;DHT22;373;49.342;8.146;2023-02-13T01:27:10;6.40;1.00
780;DHT22;373;49.342;8.146;2023-02-13T01:29:37;6.30;1.00
780;DHT22;373;49.342;8.146;2023-02-13T01:32:04;6.20;1.00
780;DHT22;373;49.342;8.146;2023-02-13T01:34:33;6.00;1.00
780;DHT22;373;49.342;8.146;2023-02-13T01:37:00;6.10;1.00
780;DHT22;373;49.342;8.146;2023-02-13T01:39:27;6.10;99.90
780;DHT22;373;49.342;8.146;2023-02-13T01:41:56;6.10;1.00
780;DHT22;373;49.342;8.146;2023-02-13T01:44:46;6.00;5.70
780;DHT22;373;49.342;8.146;2023-02-13T01:47:19;5.50;99.90
780;DHT22;373;49.342;8.146;2023-02-13T01:49:50;5.30;1.00
780;DHT22;373;49.342;8.146;2023-02-13T01:52:19;5.30;50.90
780;DHT22;373;49.342;8.146;2023-02-13T01:54:47;5.40;1.00
780;DHT22;373;49.342;8.146;2023-02-13T01:57:18;5.60;99.90
780;DHT22;373;49.342;8.146;2023-02-13T01:59:51;6.00;99.90
780;DHT22;373;49.342;8.146;2023-02-13T02:02:20;6.20;1.00
780;DHT22;373;49.342;8.146;2023-02-13T02:04:47;6.30;99.90
780;DHT22;373;49.342;8.146;2023-02-13T02:07:22;6.40;62.20
780;DHT22;373;49.342;8.146;2023-02-13T02:09:51;6.60;1.00
780;DHT22;373;49.342;8.146;2023-02-13T02:12:25;6.70;1.00
780;DHT22;373;49.342;8.146;2023-02-13T02:14:54;6.70;1.00
780;DHT22;373;49.342;8.146;2023-02-13T02:17:24;6.60;99.90
780;DHT22;373;49.342;8.146;2023-02-13T02:20:00;6.70;99.90
780;DHT22;373;49.342;8.146;2023-02-13T02:22:57;6.40;1.00
780;DHT22;373;49.342;8.146;2023-02-13T02:25:44;6.30;13.40
780;DHT22;373;49.342;8.146;2023-02-13T02:28:52;6.50;99.90
780;DHT22;373;49.342;8.146;2023-02-13T02:31:53;6.40;99.90
780;DHT22;373;49.342;8.146;2023-02-13T02:34:32;6.60;1.00
780;DHT22;373;49.342;8.146;2023-02-13T02:37:12;6.50;1.00
780;DHT22;373;49.342;8.146;2023-02-13T02:39:54;6.50;1.00
780;DHT22;373;49.342;8.146;2023-02-13T02:42:29;6.60;99.90
780;DHT22;373;49.342;8.146;2023-02-13T02:45:06;6.80;1.00
780;DHT22;373;49.342;8.146;2023-02-13T02:47:42;6.60;99.90
780;DHT22;373;49.342;8.146;2023-02-13T02:50:34;6.70;1.00
780;DHT22;373;49.342;8.146;2023-02-13T02:53:13;6.70;99.90
780;DHT22;373;49.342;8.146;2023-02-13T02:55:45;6.60;99.90
780;DHT22;373;49.342;8.146;2023-02-13T02:58:18;6.60;99.90
780;DHT22;373;49.342;8.146;2023-02-13T03:01:08;6.60;99.90
780;DHT22;373;49.342;8.146;2023-02-13T03:03:56;6.70;99.90
780;DHT22;373;49.342;8.146;2023-02-13T03:06:45;6.80;99.90
780;DHT22;373;49.342;8.146;2023-02-13T03:09:18;6.50;25.60
780;DHT22;373;49.342;8.146;2023-02-13T03:12:05;6.10;1.00
780;DHT22;373;49.342;8.146;2023-02-13T03:14:49;6.00;57.80
780;DHT22;373;49.342;8.146;2023-02-13T03:17:18;6.00;99.90
780;DHT22;373;49.342;8.146;2023-02-13T03:20:13;5.90;1.00
780;DHT22;373;49.342;8.146;2023-02-13T03:23:06;5.80;1.00
780;DHT22;373;49.342;8.146;2023-02-13T03:26:00;5.70;75.70
780;DHT22;373;49.342;8.146;2023-02-13T03:28:37;5.60;99.90
780;DHT22;373;49.342;8.146;2023-02-13T03:31:31;5.60;99.90
780;DHT22;373;49.342;8.146;2023-02-13T03:34:03;5.70;99.90
780;DHT22;373;49.342;8.146;2023-02-13T03:36:44;5.60;99.90
780;DHT22;373;49.342;8.146;2023-02-13T03:39:38;5.50;99.90
780;DHT22;373;49.342;8.146;2023-02-13T03:42:14;5.20;99.90
780;DHT22;373;49.342;8.146;2023-02-13T03:44:48;5.00;1.00
780;DHT22;373;49.342;8.146;2023-02-13T03:47:39;5.00;1.00
780;DHT22;373;49.342;8.146;2023-02-13T03:50:08;5.10;1.00
780;DHT22;373;49.342;8.146;2023-02-13T03:52:40;5.00;1.00
780;DHT22;373;49.342;8.146;2023-02-13T03:55:11;4.90;1.00
780;DHT22;373;49.342;8.146;2023-02-13T03:58:01;5.00;1.00
780;DHT22;373;49.342;8.146;2023-02-13T04:00:49;5.00;1.00
780;DHT22;373;49.342;8.146;2023-02-13T04:03:23;5.10;1.00
780;DHT22;373;49.342;8.146;2023-02-13T04:05:55;5.20;1.00
780;DHT22;373;49.342;8.146;2023-02-13T04:08:26;5.30;1.00
780;DHT22;373;49.342;8.146;2023-02-13T04:10:58;5.20;1.00
780;DHT22;373;49.342;8.146;2023-02-13T04:13:32;5.30;1.00
780;DHT22;373;49.342;8.146;2023-02-13T04:16:04;5.30;1.00
780;DHT22;373;49.342;8.146;2023-02-13T04:18:32;5.40;1.00
780;DHT22;373;49.342;8.146;2023-02-13T04:21:01;5.50;1.00
780;DHT22;373;49.342;8.146;2023-02-13T04:23:29;5.50;1.00
780;DHT22;373;49.342;8.146;2023-02-13T04:25:57;5.50;1.00
780;DHT22;373;49.342;8.146;2023-02-13T04:28:25;5.60;1.00
780;DHT22;373;49.342;8.146;2023-02-13T04:30:52;5.40;1.00
780;DHT22;373;49.342;8.146;2023-02-13T04:33:19;5.50;1.00
780;DHT22;373;49.342;8.146;2023-02-13T04:35:50;5.60;1.00
780;DHT22;373;49.342;8.146;2023-02-13T04:38:17;5.60;1.00
780;DHT22;373;49.342;8.146;2023-02-13T04:40:46;5.40;1.00
780;DHT22;373;49.342;8.146;2023-02-13T04:43:13;5.40;1.00
780;DHT22;373;49.342;8.146;2023-02-13T04:45:40;4.70;99.90
780;DHT22;373;49.342;8.146;2023-02-13T04:48:07;4.70;1.00
780;DHT22;373;49.342;8.146;2023-02-13T04:50:34;5.10;1.00
780;DHT22;373;49.342;8.146;2023-02-13T04:53:01;5.10;1.00
780;DHT22;373;49.342;8.146;2023-02-13T04:55:28;5.10;1.00
780;DHT22;373;49.342;8.146;2023-02-13T04:57:57;4.90;1.00
780;DHT22;373;49.342;8.146;2023-02-13T05:00:26;4.90;1.00
780;DHT22;373;49.342;8.146;2023-02-13T05:02:59;4.90;1.00
780;DHT22;373;49.342;8.146;2023-02-13T05:05:26;4.50;99.90
780;DHT22;373;49.342;8.146;2023-02-13T05:07:53;4.50;99.90
780;DHT22;373;49.342;8.146;2023-02-13T05:10:21;4.70;99.90
780;DHT22;373;49.342;8.146;2023-02-13T05:12:48;4.80;99.90
780;DHT22;373;49.342;8.146;2023-02-13T05:15:17;4.70;99.90
780;DHT22;373;49.342;8.146;2023-02-13T05:17:44;4.10;99.90
780;DHT22;373;49.342;8.146;2023-02-13T05:20:12;3.90;99.90
780;DHT22;373;49.342;8.146;2023-02-13T05:22:43;4.00;99.90
780;DHT22;373;49.342;8.146;2023-02-13T05:25:27;3.40;99.90
780;DHT22;373;49.342;8.146;2023-02-13T05:27:54;3.40;99.90
780;DHT22;373;49.342;8.146;2023-02-13T05:30:23;3.60;99.90
780;DHT22;373;49.342;8.146;2023-02-13T05:32:49;3.40;99.90
780;DHT22;373;49.342;8.146;2023-02-13T05:35:16;3.80;99.90
780;DHT22;373;49.342;8.146;2023-02-13T05:37:44;3.80;99.90
780;DHT22;373;49.342;8.146;2023-02-13T05:40:12;3.70;99.90
780;DHT22;373;49.342;8.146;2023-02-13T05:42:39;4.10;99.90
780;DHT22;373;49.342;8.146;2023-02-13T05:45:07;3.90;99.90
780;DHT22;373;49.342;8.146;2023-02-13T05:47:39;4.00;99.90
780;DHT22;373;49.342;8.146;2023-02-13T05:50:07;4.00;99.90
780;DHT22;373;49.342;8.146;2023-02-13T05:52:34;4.20;99.90
780;DHT22;373;49.342;8.146;2023-02-13T05:55:02;4.10;99.90
780;DHT22;373;49.342;8.146;2023-02-13T05:57:34;4.30;99.90
780;DHT22;373;49.342;8.146;2023-02-13T06:00:02;4.00;99.90
780;DHT22;373;49.342;8.146;2023-02-13T06:02:31;4.00;99.90
780;DHT22;373;49.342;8.146;2023-02-13T06:04:59;4.30;99.90
780;DHT22;373;49.342;8.146;2023-02-13T06:07:26;4.40;99.90
780;DHT22;373;49.342;8.146;2023-02-13T06:09:54;4.30;99.90
780;DHT22;373;49.342;8.146;2023-02-13T06:12:23;4.30;99.90
780;DHT22;373;49.342;8.146;2023-02-13T06:14:51;4.20;99.90
780;DHT22;373;49.342;8.146;2023-02-13T06:17:20;4.30;99.90
780;DHT22;373;49.342;8.146;2023-02-13T06:19:47;4.40;99.90
780;DHT22;373;49.342;8.146;2023-02-13T06:22:16;4.30;99.90
780;DHT22;373;49.342;8.146;2023-02-13T06:24:43;4.10;99.90
780;DHT22;373;49.342;8.146;2023-02-13T06:27:10;4.40;99.90
780;DHT22;373;49.342;8.146;2023-02-13T06:29:37;4.40;99.90
780;DHT22;373;49.342;8.146;2023-02-13T06:32:04;4.10;99.90
780;DHT22;373;49.342;8.146;2023-02-13T06:34:31;4.20;99.90
780;DHT22;373;49.342;8.146;2023-02-13T06:36:58;4.10;99.90
780;DHT22;373;49.342;8.146;2023-02-13T06:39:26;4.10;99.90
780;DHT22;373;49.342;8.146;2023-02-13T06:41:53;4.10;99.90
780;DHT22;373;49.342;8.146;2023-02-13T06:44:20;4.10;99.90
780;DHT22;373;49.342;8.146;2023-02-13T06:46:47;3.90;99.90
780;DHT22;373;49.342;8.146;2023-02-13T06:49:14;3.40;99.90
780;DHT22;373;49.342;8.146;2023-02-13T06:51:41;3.30;99.90
780;DHT22;373;49.342;8.146;2023-02-13T06:54:08;3.60;99.90
780;DHT22;373;49.342;8.146;2023-02-13T06:56:37;3.70;99.90
780;DHT22;373;49.342;8.146;2023-02-13T06:59:04;3.80;99.90
780;DHT22;373;49.342;8.146;2023-02-13T07:01:31;4.30;99.90
780;DHT22;373;49.342;8.146;2023-02-13T07:03:58;4.50;99.90
780;DHT22;373;49.342;8.146;2023-02-13T07:06:25;4.40;1.00
780;DHT22;373;49.342;8.146;2023-02-13T07:08:52;4.70;1.00
780;DHT22;373;49.342;8.146;2023-02-13T07:11:24;4.90;99.90
780;DHT22;373;49.342;8.146;2023-02-13T07:13:52;5.10;1.00
780;DHT22;373;49.342;8.146;2023-02-13T07:16:19;5.00;1.00
780;DHT22;373;49.342;8.146;2023-02-13T07:18:47;5.40;1.00
780;DHT22;373;49.342;8.146;2023-02-13T07:21:14;6.00;99.90
780;DHT22;373;49.342;8.146;2023-02-13T07:23:41;6.30;1.00
780;DHT22;373;49.342;8.146;2023-02-13T07:26:08;6.90;99.90
780;DHT22;373;49.342;8.146;2023-02-13T07:28:35;7.70;90.30
780;DHT22;373;49.342;8.146;2023-02-13T07:31:05;7.70;1.00
780;DHT22;373;49.342;8.146;2023-02-13T07:33:32;7.70;1.00
780;DHT22;373;49.342;8.146;2023-02-13T07:35:59;7.40;1.00
780;DHT22;373;49.342;8.146;2023-02-13T07:38:28;8.40;1.00
780;DHT22;373;49.342;8.146;2023-02-13T07:40:57;9.30;1.00
780;DHT22;373;49.342;8.146;2023-02-13T07:43:25;9.30;1.00
780;DHT22;373;49.342;8.146;2023-02-13T07:45:53;9.60;1.00
780;DHT22;373;49.342;8.146;2023-02-13T07:48:22;10.10;99.90
780;DHT22;373;49.342;8.146;2023-02-13T07:50:52;10.80;99.90
780;DHT22;373;49.342;8.146;2023-02-13T07:53:19;10.50;99.90
780;DHT22;373;49.342;8.146;2023-02-13T07:55:47;11.10;99.90
780;DHT22;373;49.342;8.146;2023-02-13T07:58:14;11.60;99.90
780;DHT22;373;49.342;8.146;2023-02-13T08:00:41;12.70;99.90
780;DHT22;373;49.342;8.146;2023-02-13T08:03:09;13.30;99.90
780;DHT22;373;49.342;8.146;2023-02-13T08:05:37;12.60;99.90
780;DHT22;373;49.342;8.146;2023-02-13T08:08:05;12.80;99.90
780;DHT22;373;49.342;8.146;2023-02-13T08:10:32;13.90;99.90
780;DHT22;373;49.342;8.146;2023-02-13T08:13:17;14.00;99.90
780;DHT22;373;49.342;8.146;2023-02-13T08:15:44;14.90;99.90
780;DHT22;373;49.342;8.146;2023-02-13T08:18:12;16.20;99.90
780;DHT22;373;49.342;8.146;2023-02-13T08:20:40;15.60;99.90
780;DHT22;373;49.342;8.146;2023-02-13T08:23:09;16.50;99.90
780;DHT22;373;49.342;8.146;2023-02-13T08:25:37;14.90;99.90
780;DHT22;373;49.342;8.146;2023-02-13T08:28:04;14.10;99.90
780;DHT22;373;49.342;8.146;2023-02-13T08:30:31;13.30;99.90
780;DHT22;373;49.342;8.146;2023-02-13T08:32:58;13.90;99.90
780;DHT22;373;49.342;8.146;2023-02-13T08:35:25;14.50;99.90
780;DHT22;373;49.342;8.146;2023-02-13T08:37:55;13.10;99.90
780;DHT22;373;49.342;8.146;2023-02-13T08:40:23;13.10;99.90
780;DHT22;373;49.342;8.146;2023-02-13T08:42:49;13.30;99.90
780;DHT22;373;49.342;8.146;2023-02-13T08:45:17;13.10;99.90
780;DHT22;373;49.342;8.146;2023-02-13T08:47:44;12.20;99.90
780;DHT22;373;49.342;8.146;2023-02-13T08:50:11;11.90;99.90
780;DHT22;373;49.342;8.146;2023-02-13T08:52:38;12.60;99.90
780;DHT22;373;49.342;8.146;2023-02-13T08:55:06;11.40;99.90
780;DHT22;373;49.342;8.146;2023-02-13T08:57:33;11.60;99.90
780;DHT22;373;49.342;8.146;2023-02-13T09:00:01;12.20;99.90
780;DHT22;373;49.342;8.146;2023-02-13T09:02:28;12.00;99.90
780;DHT22;373;49.342;8.146;2023-02-13T09:04:55;11.60;99.90
780;DHT22;373;49.342;8.146;2023-02-13T09:07:22;11.60;99.90
780;DHT22;373;49.342;8.146;2023-02-13T09:09:50;11.50;99.90
780;DHT22;373;49.342;8.146;2023-02-13T09:12:18;12.20;99.90
780;DHT22;373;49.342;8.146;2023-02-13T09:14:46;11.90;99.90
780;DHT22;373;49.342;8.146;2023-02-13T09:17:13;12.00;99.90
780;DHT22;373;49.342;8.146;2023-02-13T09:19:43;12.40;99.90
780;DHT22;373;49.342;8.146;2023-02-13T09:22:10;12.70;99.90
780;DHT22;373;49.342;8.146;2023-02-13T09:24:37;12.80;99.90
780;DHT22;373;49.342;8.146;2023-02-13T09:27:04;14.50;99.90
780;DHT22;373;49.342;8.146;2023-02-13T09:29:34;14.80;99.90
780;DHT22;373;49.342;8.146;2023-02-13T09:32:01;14.80;99.90
780;DHT22;373;49.342;8.146;2023-02-13T09:34:30;15.00;99.90
780;DHT22;373;49.342;8.146;2023-02-13T09:36:57;14.70;99.90
780;DHT22;373;49.342;8.146;2023-02-13T09:39:24;15.30;99.90
780;DHT22;373;49.342;8.146;2023-02-13T09:41:52;15.80;99.90
780;DHT22;373;49.342;8.146;2023-02-13T09:44:26;15.20;99.90
780;DHT22;373;49.342;8.146;2023-02-13T09:47:10;16.90;99.90
780;DHT22;373;49.342;8.146;2023-02-13T09:49:43;18.30;99.90
780;DHT22;373;49.342;8.146;2023-02-13T09:52:12;18.60;99.90
780;DHT22;373;49.342;8.146;2023-02-13T09:54:39;18.40;99.90
780;DHT22;373;49.342;8.146;2023-02-13T09:57:14;17.20;99.90
780;DHT22;373;49.342;8.146;2023-02-13T09:59:52;18.40;99.90
780;DHT22;373;49.342;8.146;2023-02-13T10:02:41;20.40;99.90
780;DHT22;373;49.342;8.146;2023-02-13T10:05:29;18.30;99.90
780;DHT22;373;49.342;8.146;2023-02-13T10:08:07;17.60;99.90
780;DHT22;373;49.342;8.146;2023-02-13T10:10:46;18.40;99.90
780;DHT22;373;49.342;8.146;2023-02-13T10:13:30;19.30;99.90
780;DHT22;373;49.342;8.146;2023-02-13T10:16:03;19.70;99.90
780;DHT22;373;49.342;8.146;2023-02-13T10:18:42;19.40;99.90
780;DHT22;373;49.342;8.146;2023-02-13T10:21:11;19.00;99.90
780;DHT22;373;49.342;8.146;2023-02-13T10:23:42;19.80;99.90
780;DHT22;373;49.342;8.146;2023-02-13T10:26:17;19.60;99.90
780;DHT22;373;49.342;8.146;2023-02-13T10:28:49;18.50;99.90
780;DHT22;373;49.342;8.146;2023-02-13T10:31:40;19.00;99.90
780;DHT22;373;49.342;8.146;2023-02-13T10:34:14;19.40;99.90
780;DHT22;373;49.342;8.146;2023-02-13T10:36:44;19.70;99.90
780;DHT22;373;49.342;8.146;2023-02-13T10:39:21;20.90;99.90
780;DHT22;373;49.342;8.146;2023-02-13T10:41:51;20.50;99.90
780;DHT22;373;49.342;8.146;2023-02-13T10:44:43;21.10;99.90
780;DHT22;373;49.342;8.146;2023-02-13T10:47:24;20.20;97.80
780;DHT22;373;49.342;8.146;2023-02-13T10:50:02;20.70;98.30
780;DHT22;373;49.342;8.146;2023-02-13T10:52:38;20.30;96.50
780;DHT22;373;49.342;8.146;2023-02-13T10:55:19;21.20;97.70
780;DHT22;373;49.342;8.146;2023-02-13T10:58:04;20.20;95.20
780;DHT22;373;49.342;8.146;2023-02-13T11:00:36;20.00;94.00
780;DHT22;373;49.342;8.146;2023-02-13T11:03:04;19.90;93.90
780;DHT22;373;49.342;8.146;2023-02-13T11:05:36;21.20;95.90
780;DHT22;373;49.342;8.146;2023-02-13T11:08:12;22.40;96.90
780;DHT22;373;49.342;8.146;2023-02-13T11:10:42;20.20;90.80
780;DHT22;373;49.342;8.146;2023-02-13T11:13:15;19.40;90.20
780;DHT22;373;49.342;8.146;2023-02-13T11:15:55;20.40;92.00
780;DHT22;373;49.342;8.146;2023-02-13T11:18:25;20.20;90.90
780;DHT22;373;49.342;8.146;2023-02-13T11:21:04;20.70;91.60
780;DHT22;373;49.342;8.146;2023-02-13T11:23:41;21.80;92.50
780;DHT22;373;49.342;8.146;2023-02-13T11:26:11;20.50;88.70
780;DHT22;373;49.342;8.146;2023-02-13T11:28:47;20.50;89.30
780;DHT22;373;49.342;8.146;2023-02-13T11:31:21;19.60;83.50
780;DHT22;373;49.342;8.146;2023-02-13T11:33:49;20.20;87.10
780;DHT22;373;49.342;8.146;2023-02-13T11:36:24;19.10;81.20
780;DHT22;373;49.342;8.146;2023-02-13T11:38:57;20.30;85.10
780;DHT22;373;49.342;8.146;2023-02-13T11:41:25;19.60;82.50
780;DHT22;373;49.342;8.146;2023-02-13T11:43:54;18.40;76.50
780;DHT22;373;49.342;8.146;2023-02-13T11:46:27;17.80;75.60
780;DHT22;373;49.342;8.146;2023-02-13T11:49:00;18.90;78.30
780;DHT22;373;49.342;8.146;2023-02-13T11:51:38;20.10;82.20
780;DHT22;373;49.342;8.146;2023-02-13T11:54:05;20.50;82.50
780;DHT22;373;49.342;8.146;2023-02-13T11:56:50;20.50;82.00
780;DHT22;373;49.342;8.146;2023-02-13T11:59:21;20.30;79.00
780;DHT22;373;49.342;8.146;2023-02-13T12:02:01;20.70;79.70
780;DHT22;373;49.342;8.146;2023-02-13T12:04:28;22.80;93.30
780;DHT22;373;49.342;8.146;2023-02-13T12:07:02;22.80;84.90
780;DHT22;373;49.342;8.146;2023-02-13T12:09:31;20.50;74.00
780;DHT22;373;49.342;8.146;2023-02-13T12:12:00;20.70;75.50
780;DHT22;373;49.342;8.146;2023-02-13T12:14:31;20.00;70.90
780;DHT22;373;49.342;8.146;2023-02-13T12:17:03;18.70;65.90
780;DHT22;373;49.342;8.146;2023-02-13T12:19:37;17.00;60.60
780;DHT22;373;49.342;8.146;2023-02-13T12:22:20;17.20;73.10
780;DHT22;373;49.342;8.146;2023-02-13T12:25:18;16.60;61.40
780;DHT22;373;49.342;8.146;2023-02-13T12:27:58;15.50;68.60
780;DHT22;373;49.342;8.146;2023-02-13T12:33:44;13.40;59.00
780;DHT22;373;49.342;8.146;2023-02-13T12:36:18;13.70;64.50
780;DHT22;373;49.342;8.146;2023-02-13T12:38:58;13.50;65.80
780;DHT22;373;49.342;8.146;2023-02-13T12:41:37;12.60;68.80
780;DHT22;373;49.342;8.146;2023-02-13T12:47:37;12.00;60.30
780;DHT22;373;49.342;8.146;2023-02-13T12:50:26;11.60;72.50
780;DHT22;373;49.342;8.146;2023-02-13T12:53:14;11.10;84.90
780;DHT22;373;49.342;8.146;2023-02-13T12:56:03;11.10;95.40
780;DHT22;373;49.342;8.146;2023-02-13T12:58:56;11.70;99.00
780;DHT22;373;49.342;8.146;2023-02-13T13:01:40;12.00;95.30
780;DHT22;373;49.342;8.146;2023-02-13T13:04:15;12.10;97.50
780;DHT22;373;49.342;8.146;2023-02-13T13:06:51;12.40;96.20
780;DHT22;373;49.342;8.146;2023-02-13T13:09:38;12.10;98.10
780;DHT22;373;49.342;8.146;2023-02-13T13:12:26;12.00;97.40
780;DHT22;373;49.342;8.146;2023-02-13T13:15:02;11.90;98.30
780;DHT22;373;49.342;8.146;2023-02-13T13:20:51;12.60;96.70
780;DHT22;373;49.342;8.146;2023-02-13T13:23:24;13.10;99.90
780;DHT22;373;49.342;8.146;2023-02-13T13:26:05;13.30;99.90
780;DHT22;373;49.342;8.146;2023-02-13T13:28:39;13.10;99.90
780;DHT22;373;49.342;8.146;2023-02-13T13:31:07;13.40;99.90
780;DHT22;373;49.342;8.146;2023-02-13T13:33:38;12.80;99.70
780;DHT22;373;49.342;8.146;2023-02-13T13:36:10;12.80;99.90
780;DHT22;373;49.342;8.146;2023-02-13T13:38:49;12.90;99.90
780;DHT22;373;49.342;8.146;2023-02-13T13:41:23;13.10;99.80
780;DHT22;373;49.342;8.146;2023-02-13T13:44:25;12.90;99.90
780;DHT22;373;49.342;8.146;2023-02-13T13:47:03;12.40;99.90
780;DHT22;373;49.342;8.146;2023-02-13T13:49:36;12.40;99.90
780;DHT22;373;49.342;8.146;2023-02-13T13:52:10;12.10;99.90
780;DHT22;373;49.342;8.146;2023-02-13T13:54:44;12.20;99.90
780;DHT22;373;49.342;8.146;2023-02-13T13:57:16;12.00;99.90
780;DHT22;373;49.342;8.146;2023-02-13T14:00:25;12.30;99.90
780;DHT22;373;49.342;8.146;2023-02-13T14:06:06;12.60;99.90
780;DHT22;373;49.342;8.146;2023-02-13T14:08:57;12.50;99.90
780;DHT22;373;49.342;8.146;2023-02-13T14:11:36;12.50;99.90
780;DHT22;373;49.342;8.146;2023-02-13T14:17:13;12.00;99.90
780;DHT22;373;49.342;8.146;2023-02-13T14:19:44;12.00;99.90
780;DHT22;373;49.342;8.146;2023-02-13T14:22:31;11.90;99.90
780;DHT22;373;49.342;8.146;2023-02-13T14:25:01;11.80;99.90
780;DHT22;373;49.342;8.146;2023-02-13T14:27:31;11.60;99.90
780;DHT22;373;49.342;8.146;2023-02-13T14:29:59;11.60;99.90
780;DHT22;373;49.342;8.146;2023-02-13T14:32:30;11.50;99.90
780;DHT22;373;49.342;8.146;2023-02-13T14:35:00;11.70;99.90
780;DHT22;373;49.342;8.146;2023-02-13T14:37:34;11.50;99.90
780;DHT22;373;49.342;8.146;2023-02-13T14:40:41;11.60;99.90
780;DHT22;373;49.342;8.146;2023-02-13T14:43:27;12.00;99.90
780;DHT22;373;49.342;8.146;2023-02-13T14:45:55;12.00;99.90
780;DHT22;373;49.342;8.146;2023-02-13T14:48:33;12.20;99.90
780;DHT22;373;49.342;8.146;2023-02-13T14:51:02;12.20;99.90
780;DHT22;373;49.342;8.146;2023-02-13T14:53:37;12.20;99.90
780;DHT22;373;49.342;8.146;2023-02-13T14:56:13;12.50;99.90
780;DHT22;373;49.342;8.146;2023-02-13T14:58:47;12.60;99.90
780;DHT22;373;49.342;8.146;2023-02-13T15:01:26;12.30;99.90
780;DHT22;373;49.342;8.146;2023-02-13T15:03:58;12.00;99.90
780;DHT22;373;49.342;8.146;2023-02-13T15:06:33;12.10;99.90
780;DHT22;373;49.342;8.146;2023-02-13T15:09:04;12.10;99.90
780;DHT22;373;49.342;8.146;2023-02-13T15:11:35;11.60;99.90
780;DHT22;373;49.342;8.146;2023-02-13T15:14:20;11.60;99.90
780;DHT22;373;49.342;8.146;2023-02-13T15:16:50;11.40;99.90
780;DHT22;373;49.342;8.146;2023-02-13T15:19:21;11.30;99.90
780;DHT22;373;49.342;8.146;2023-02-13T15:21:54;11.30;99.90
780;DHT22;373;49.342;8.146;2023-02-13T15:24:22;11.20;99.90
780;DHT22;373;49.342;8.146;2023-02-13T15:26:57;11.20;99.90
780;DHT22;373;49.342;8.146;2023-02-13T15:29:25;11.10;99.90
780;DHT22;373;49.342;8.146;2023-02-13T15:31:52;11.10;99.90
780;DHT22;373;49.342;8.146;2023-02-13T15:34:23;11.00;99.90
780;DHT22;373;49.342;8.146;2023-02-13T15:36:51;10.90;99.90
780;DHT22;373;49.342;8.146;2023-02-13T15:39:23;10.90;99.90
780;DHT22;373;49.342;8.146;2023-02-13T15:41:52;11.10;99.90
780;DHT22;373;49.342;8.146;2023-02-13T15:44:22;11.20;99.90
780;DHT22;373;49.342;8.146;2023-02-13T15:46:53;11.30;99.90
780;DHT22;373;49.342;8.146;2023-02-13T15:49:24;11.20;99.90
780;DHT22;373;49.342;8.146;2023-02-13T15:52:01;11.10;99.90
780;DHT22;373;49.342;8.146;2023-02-13T15:54:30;11.10;99.90
780;DHT22;373;49.342;8.146;2023-02-13T15:56:59;11.10;99.90
780;DHT22;373;49.342;8.146;2023-02-13T15:59:30;11.00;99.90
780;DHT22;373;49.342;8.146;2023-02-13T16:01:59;11.10;99.90
780;DHT22;373;49.342;8.146;2023-02-13T16:04:27;11.30;99.90
780;DHT22;373;49.342;8.146;2023-02-13T16:06:56;11.40;99.90
780;DHT22;373;49.342;8.146;2023-02-13T16:09:26;11.60;99.90
780;DHT22;373;49.342;8.146;2023-02-13T16:11:59;11.70;99.90
780;DHT22;373;49.342;8.146;2023-02-13T16:14:28;12.00;99.90
780;DHT22;373;49.342;8.146;2023-02-13T16:16:58;12.10;99.90
780;DHT22;373;49.342;8.146;2023-02-13T16:19:31;12.20;99.90
780;DHT22;373;49.342;8.146;2023-02-13T16:22:02;12.40;99.90
780;DHT22;373;49.342;8.146;2023-02-13T16:24:31;12.40;99.90
780;DHT22;373;49.342;8.146;2023-02-13T16:26:58;12.50;99.90
780;DHT22;373;49.342;8.146;2023-02-13T16:29:26;12.30;99.90
780;DHT22;373;49.342;8.146;2023-02-13T16:32:03;12.40;99.90
780;DHT22;373;49.342;8.146;2023-02-13T16:34:32;12.50;99.90
780;DHT22;373;49.342;8.146;2023-02-13T16:36:59;12.40;99.90
780;DHT22;373;49.342;8.146;2023-02-13T16:39:28;12.10;99.90
780;DHT22;373;49.342;8.146;2023-02-13T16:41:55;12.00;99.90
780;DHT22;373;49.342;8.146;2023-02-13T16:44:27;12.10;99.90
780;DHT22;373;49.342;8.146;2023-02-13T16:46:56;12.10;99.90
780;DHT22;373;49.342;8.146;2023-02-13T16:49:32;12.20;99.90
780;DHT22;373;49.342;8.146;2023-02-13T16:52:07;12.30;99.90
780;DHT22;373;49.342;8.146;2023-02-13T16:54:45;12.20;99.90
780;DHT22;373;49.342;8.146;2023-02-13T16:57:18;12.20;99.90
780;DHT22;373;49.342;8.146;2023-02-13T16:59:58;12.00;99.90
780;DHT22;373;49.342;8.146;2023-02-13T17:02:27;11.70;99.90
780;DHT22;373;49.342;8.146;2023-02-13T17:05:00;11.30;99.90
780;DHT22;373;49.342;8.146;2023-02-13T17:07:40;11.20;99.90
780;DHT22;373;49.342;8.146;2023-02-13T17:10:17;11.20;99.90
780;DHT22;373;49.342;8.146;2023-02-13T17:12:44;11.30;99.90
780;DHT22;373;49.342;8.146;2023-02-13T17:15:13;11.30;99.90
780;DHT22;373;49.342;8.146;2023-02-13T17:17:40;11.10;99.90
780;DHT22;373;49.342;8.146;2023-02-13T17:20:14;10.80;99.90
780;DHT22;373;49.342;8.146;2023-02-13T17:22:43;10.60;99.90
780;DHT22;373;49.342;8.146;2023-02-13T17:25:16;10.30;99.90
780;DHT22;373;49.342;8.146;2023-02-13T17:27:43;10.40;99.90
780;DHT22;373;49.342;8.146;2023-02-13T17:30:12;10.40;99.90
780;DHT22;373;49.342;8.146;2023-02-13T17:32:40;10.30;99.90
780;DHT22;373;49.342;8.146;2023-02-13T17:35:10;9.90;99.90
780;DHT22;373;49.342;8.146;2023-02-13T17:37:39;9.90;99.90